Aérodrome :
LOGIN :

S'inscrire | Disclaimer

   EN    FR    IT 

 










Légende :    VFR   VFR Marginal   IFR   IFR Intensif   IFR Très Intensif
Visi : 
Plafond : 
>= 8 km
>= 3000ft
5 à 8 km
1000 à 3000 ft
1500m à 5 km
500 à 1000 ft
800 à 1500m
200 à 500 ft
< 800m
< 200 ft
Symboles :   Orages  Brouillard  Fortes neiges  Fortes précipitations  Vent > 20 kt
SIGMETs :   Divers  Orages  Givrage  Turbulence  Onde Orograph.  Cendres Volcan.







- Altitude de l'aérodrome : 286 ft
- Code IATA : TRF


ENTO - Sandefjord , Torp

DERNIER METAR :
  • 170950Z 36004KT 0300 R18/0700N R36/0650N FG VV002 01/01 Q1018 TEMPO 0400 FG

METARs EXPIRÉS :
  • 170920Z 35004KT 0300 R18/0700N R36/0750N FG VV002 01/01 Q1018 TEMPO 0400 FG
  • 170850Z 35006KT 0300 R18/0900D R36/0650N FG VV002 01/01 Q1018 TEMPO 0400 FG
  • 170820Z 35007KT 0250 R18/0750N R36/0650N FG VV002 01/01 Q1018 TEMPO 0400 FG
  • 170750Z 01007KT 0350 R18/0800D R36/0800N FG VV002 01/01 Q1017 NOSIG
  • 170720Z 01007KT 0400 R18/1000N R36/1000N FG VV002 01/01 Q1017 TEMPO 0700 FG

TAF TAF ENTO
Valide du 17 à 06h jusqu'au 18 à 06h UTC


1706/1806 02008KT 0200 FG VV001
PROB30 1706/1710 FZFG
TEMPO 1706/1715 5000 BR BKN008
BECMG 1715/1717 17012KT 4000 -DZRA BR OVC006
TEMPO 1717/1806 1200 DZRA BR OVC002
Pas de NOTAMs connus pour ce terrain.



MET'MAP, la Météo Aéronautique d'un coup d'oeil ! - Copyright ORBIFLY Décembre 2007 - Disclaimer

ORBIFLY MET'MAP TEAM :

Programmation & Développement : Alexandra Zaïnal
Conception & Développement : Baudouin d'Aumeries
Co-Programmation & Développement : Marc-Olivier Méhu
Soutien technique & logistique : Manuel Goepfert

Contact : metmap@orbifly.com




SOURCES & CREDITS :

   NOAA